Time;durP1;ratioP1;P1;durP2;ratioP2;P2;SDS_P1;SDS_P2;PMS_P1;PMS_P2;Temp;Humidity;BMP_temperature;BMP_pressure;BME280_temperature;BME280_humidity;BME280_pressure;Samples;Min_cycle;Max_cycle;Signal;HPM_P1;HPM_P2
2023/08/29 00:01:18;;;;;;;;;;;;;;;;;;4969049;28;20970;-68
2023/08/29 00:03:43;;;;;;;;;;;;;;;;;;4954870;28;19917;-69
2023/08/29 00:06:09;;;;;;;;;;;;;;;;;;4983945;28;19932;-70
2023/08/29 00:08:34;;;;;;;;;;;;;;;;;;4986745;28;19922;-69
2023/08/29 00:11:02;;;;;;;;;;;;;;;;;;4970210;28;19921;-71
2023/08/29 00:13:28;;;;;;;;;;;;;;;;;;4970462;28;19944;-69
2023/08/29 00:15:53;;;;;;;;;;;;;;;;;;4950490;28;19917;-69
2023/08/29 00:18:19;;;;;;;;;;;;;;;;;;4966977;28;20924;-70
2023/08/29 00:20:47;;;;;;;;;;;;;;;;;;4966941;28;19976;-69
2023/08/29 00:23:12;;;;;;;;;;;;;;;;;;4950108;28;21873;-69
2023/08/29 00:25:38;;;;;;;;;;;;;;;;;;4953937;28;19921;-69
2023/08/29 00:28:07;;;;;;;;;;;;;;;;;;4952400;28;22156;-68
2023/08/29 00:33:48;;;;;;;;;;;;;;;;;;4985434;28;20025;-68
2023/08/29 00:36:14;;;;;;;;;;;;;;;;;;4952818;28;19937;-68
2023/08/29 00:38:42;;;;;;;;;;;;;;;;;;4964485;28;19922;-68
2023/08/29 00:41:11;;;;;;;;;;;;;;;;;;4949550;28;20983;-69
2023/08/29 00:43:36;;;;;;;;;;;;;;;;;;4952318;28;19917;-68
2023/08/29 00:46:04;;;;;;;;;;;;;;;;;;4967078;28;19921;-68
2023/08/29 00:48:32;;;;;;;;;;;;;;;;;;4970158;28;19921;-68
2023/08/29 00:50:59;;;;;;;;;;;;;;;;;;4965088;28;19928;-68
2023/08/29 00:53:25;;;;;;;;;;;;;;;;;;4950864;28;20016;-69
2023/08/29 00:55:53;;;;;;;;;;;;;;;;;;4950503;28;20064;-69
2023/08/29 00:58:20;;;;;;;;;;;;;;;;;;4968333;28;22183;-69
2023/08/29 01:00:48;;;;;;;;;;;;;;;;;;4979432;28;20024;-69
2023/08/29 01:03:14;;;;;;;;;;;;;;;;;;4950887;28;19918;-70
2023/08/29 01:05:39;;;;;;;;;;;;;;;;;;4968717;28;19925;-69
2023/08/29 01:08:05;;;;;;;;;;;;;;;;;;4947495;28;19944;-68
2023/08/29 01:10:33;;;;;;;;;;;;;;;;;;4985995;28;20054;-69
2023/08/29 01:12:59;;;;;;;;;;;;;;;;;;4985001;28;21772;-69
2023/08/29 01:15:27;;;;;;;;;;;;;;;;;;4986212;28;20057;-70
2023/08/29 01:17:52;;;;;;;;;;;;;;;;;;4952518;28;19925;-69
2023/08/29 01:20:21;;;;;;;;;;;;;;;;;;4965795;28;20028;-69
2023/08/29 01:22:47;;;;;;;;;;;;;;;;;;4954966;28;19917;-69
2023/08/29 01:25:17;;;;;;;;;;;;;;;;;;4985195;28;19921;-69
2023/08/29 01:27:43;;;;;;;;;;;;;;;;;;4967442;28;19928;-69
2023/08/29 01:30:08;;;;;;;;;;;;;;;;;;4968924;28;19917;-69
2023/08/29 01:32:33;;;;;;;;;;;;;;;;;;4967841;28;20011;-69
2023/08/29 01:34:58;;;;;;;;;;;;;;;;;;4966366;28;20499;-70
2023/08/29 01:37:26;;;;;;;;;;;;;;;;;;4967885;28;21249;-70
2023/08/29 01:39:51;;;;;;;;;;;;;;;;;;4950173;28;19921;-70
2023/08/29 01:42:19;;;;;;;;;;;;;;;;;;4950284;28;19924;-70
2023/08/29 01:44:44;;;;;;;;;;;;;;;;;;4954692;28;19960;-70
2023/08/29 01:47:10;;;;;;;;;;;;;;;;;;4967617;28;20004;-70
2023/08/29 01:49:38;;;;;;;;;;;;;;;;;;4968154;28;19921;-70
2023/08/29 01:52:03;;;;;;;;;;;;;;;;;;4987769;28;19983;-70
2023/08/29 01:54:34;;;;;;;;;;;;;;;;;;4970492;28;19925;-70
2023/08/29 01:57:02;;;;;;;;;;;;;;;;;;4971657;28;20007;-70
2023/08/29 01:59:27;;;;;;;;;;;;;;;;;;4968663;28;19955;-71
2023/08/29 02:01:54;;;;;;;;;;;;;;;;;;4972265;28;19921;-71
2023/08/29 02:04:19;;;;;;;;;;;;;;;;;;4970960;28;21146;-71
2023/08/29 02:06:47;;;;;;;;;;;;;;;;;;4988567;28;20031;-71
2023/08/29 02:09:16;;;;;;;;;;;;;;;;;;4971459;28;21175;-70
2023/08/29 02:11:43;;;;;;;;;;;;;;;;;;4970557;28;19975;-71
2023/08/29 02:14:14;;;;;;;;;;;;;;;;;;4954220;28;19976;-72
2023/08/29 02:16:39;;;;;;;;;;;;;;;;;;4970184;28;20518;-70
2023/08/29 02:19:04;;;;;;;;;;;;;;;;;;4968866;28;19922;-70
2023/08/29 02:21:30;;;;;;;;;;;;;;;;;;4952154;28;19922;-70
2023/08/29 02:23:55;;;;;;;;;;;;;;;;;;4956227;28;20484;-70
2023/08/29 02:26:26;;;;;;;;;;;;;;;;;;4985739;28;20111;-70
2023/08/29 02:28:51;;;;;;;;;;;;;;;;;;4988495;28;19963;-70
2023/08/29 02:31:16;;;;;;;;;;;;;;;;;;4954399;28;20306;-71
2023/08/29 02:33:44;;;;;;;;;;;;;;;;;;4956462;28;19933;-71
2023/08/29 02:36:10;;;;;;;;;;;;;;;;;;4987832;28;19922;-70
2023/08/29 02:38:38;;;;;;;;;;;;;;;;;;4970505;28;19914;-70
2023/08/29 02:41:03;;;;;;;;;;;;;;;;;;4989083;28;19917;-70
2023/08/29 02:43:31;;;;;;;;;;;;;;;;;;4954196;28;20023;-70
2023/08/29 02:45:58;;;;;;;;;;;;;;;;;;4971933;28;19925;-70
2023/08/29 02:48:24;;;;;;;;;;;;;;;;;;4988362;28;19924;-70
2023/08/29 02:50:49;;;;;;;;;;;;;;;;;;4970318;28;19921;-70
2023/08/29 02:53:15;;;;;;;;;;;;;;;;;;4952020;28;20442;-70
2023/08/29 02:55:43;;;;;;;;;;;;;;;;;;4972946;28;19927;-70
2023/08/29 02:58:08;;;;;;;;;;;;;;;;;;4954564;28;19921;-70
2023/08/29 03:00:37;;;;;;;;;;;;;;;;;;4970324;28;19918;-70
2023/08/29 03:03:04;;;;;;;;;;;;;;;;;;4973010;28;20395;-71
2023/08/29 03:05:30;;;;;;;;;;;;;;;;;;4968826;28;20843;-70
2023/08/29 03:07:57;;;;;;;;;;;;;;;;;;4984995;28;19921;-71
2023/08/29 03:10:26;;;;;;;;;;;;;;;;;;4952440;28;19927;-71
2023/08/29 03:12:52;;;;;;;;;;;;;;;;;;4954465;28;19921;-70
2023/08/29 03:15:19;;;;;;;;;;;;;;;;;;4953535;28;20510;-70
2023/08/29 03:17:48;;;;;;;;;;;;;;;;;;4953674;28;19926;-70
2023/08/29 03:20:16;;;;;;;;;;;;;;;;;;4969833;28;19984;-70
2023/08/29 03:22:41;;;;;;;;;;;;;;;;;;4970976;28;19917;-70
2023/08/29 03:25:12;;;;;;;;;;;;;;;;;;4970895;28;19921;-70
2023/08/29 03:27:40;;;;;;;;;;;;;;;;;;4969003;28;20547;-70
2023/08/29 03:30:08;;;;;;;;;;;;;;;;;;4969227;28;20341;-70
2023/08/29 03:32:34;;;;;;;;;;;;;;;;;;4987014;28;19929;-71
2023/08/29 03:35:00;;;;;;;;;;;;;;;;;;4971358;28;20653;-71
2023/08/29 03:37:25;;;;;;;;;;;;;;;;;;4970382;28;19925;-71
2023/08/29 03:39:54;;;;;;;;;;;;;;;;;;4964595;28;20045;-70
2023/08/29 03:42:20;;;;;;;;;;;;;;;;;;4984806;28;19921;-71
2023/08/29 03:44:46;;;;;;;;;;;;;;;;;;4969246;28;20307;-71
2023/08/29 03:47:11;;;;;;;;;;;;;;;;;;4986788;28;20043;-71
2023/08/29 03:49:40;;;;;;;;;;;;;;;;;;4968789;28;19944;-70
2023/08/29 03:52:07;;;;;;;;;;;;;;;;;;4988832;28;19922;-70
2023/08/29 03:54:38;;;;;;;;;;;;;;;;;;4967864;28;19932;-69
2023/08/29 03:57:06;;;;;;;;;;;;;;;;;;4985663;28;19995;-70
2023/08/29 03:59:37;;;;;;;;;;;;;;;;;;4968720;28;20419;-70
2023/08/29 04:02:08;;;;;;;;;;;;;;;;;;4955373;28;20408;-70
2023/08/29 04:04:36;;;;;;;;;;;;;;;;;;4951804;28;19964;-71
2023/08/29 04:07:01;;;;;;;;;;;;;;;;;;4971224;28;19921;-70
2023/08/29 04:09:29;;;;;;;;;;;;;;;;;;4986613;28;19933;-70
2023/08/29 04:11:57;;;;;;;;;;;;;;;;;;4982831;28;20103;-70
2023/08/29 04:14:28;;;;;;;;;;;;;;;;;;4965992;28;19933;-71
2023/08/29 04:16:54;;;;;;;;;;;;;;;;;;4948163;28;19926;-70
2023/08/29 04:19:20;;;;;;;;;;;;;;;;;;4951030;28;19964;-70
2023/08/29 04:21:45;;;;;;;;;;;;;;;;;;4949722;28;19918;-70
2023/08/29 04:24:10;;;;;;;;;;;;;;;;;;4968686;28;20563;-70
2023/08/29 04:26:36;;;;;;;;;;;;;;;;;;4968350;28;19953;-70
2023/08/29 04:29:01;;;;;;;;;;;;;;;;;;4968603;28;19925;-72
2023/08/29 04:31:26;;;;;;;;;;;;;;;;;;4968205;28;19922;-74
2023/08/29 04:33:54;;;;;;;;;;;;;;;;;;4951230;28;19929;-72
2023/08/29 04:36:20;;;;;;;;;;;;;;;;;;4969479;28;19972;-71
2023/08/29 04:38:48;;;;;;;;;;;;;;;;;;4968988;28;21154;-72
2023/08/29 04:41:13;;;;;;;;;;;;;;;;;;4968031;28;19998;-73
2023/08/29 04:43:41;;;;;;;;;;;;;;;;;;4969360;28;21026;-72
2023/08/29 04:46:09;;;;;;;;;;;;;;;;;;4952656;28;19965;-71
2023/08/29 04:48:37;;;;;;;;;;;;;;;;;;4967738;28;20051;-71
2023/08/29 04:51:05;;;;;;;;;;;;;;;;;;4982001;28;19925;-70
2023/08/29 04:53:30;;;;;;;;;;;;;;;;;;4968190;28;19983;-70
2023/08/29 04:55:57;;;;;;;;;;;;;;;;;;4964891;28;19945;-70
2023/08/29 04:58:25;;;;;;;;;;;;;;;;;;4951972;28;19929;-71
2023/08/29 05:00:51;;;;;;;;;;;;;;;;;;4962016;28;19998;-71
2023/08/29 05:03:17;;;;;;;;;;;;;;;;;;4950374;28;20017;-71
2023/08/29 05:05:46;;;;;;;;;;;;;;;;;;4966729;28;19918;-70
2023/08/29 05:08:12;;;;;;;;;;;;;;;;;;4966103;28;19969;-71
2023/08/29 05:10:40;;;;;;;;;;;;;;;;;;4966413;28;20417;-71
2023/08/29 05:13:11;;;;;;;;;;;;;;;;;;4965717;28;19918;-70
2023/08/29 05:15:36;;;;;;;;;;;;;;;;;;4963764;28;19921;-71
2023/08/29 05:18:07;;;;;;;;;;;;;;;;;;4988487;28;20111;-71
2023/08/29 05:20:32;;;;;;;;;;;;;;;;;;4953796;28;19922;-71
2023/08/29 05:23:00;;;;;;;;;;;;;;;;;;4954812;28;20015;-71
2023/08/29 05:25:28;;;;;;;;;;;;;;;;;;4967384;28;19921;-70
2023/08/29 05:27:53;;;;;;;;;;;;;;;;;;4950328;28;20008;-71
2023/08/29 05:30:20;;;;;;;;;;;;;;;;;;4953346;28;19921;-71
2023/08/29 05:32:48;;;;;;;;;;;;;;;;;;4954303;28;19917;-71
2023/08/29 05:35:13;;;;;;;;;;;;;;;;;;4968747;28;19929;-71
2023/08/29 05:37:39;;;;;;;;;;;;;;;;;;4948532;28;19922;-71
2023/08/29 05:40:10;;;;;;;;;;;;;;;;;;4982791;28;20029;-71
2023/08/29 05:42:39;;;;;;;;;;;;;;;;;;4967703;28;19922;-71
2023/08/29 05:45:04;;;;;;;;;;;;;;;;;;4953859;28;19929;-71
2023/08/29 05:47:29;;;;;;;;;;;;;;;;;;4948229;28;19922;-71
2023/08/29 05:49:57;;;;;;;;;;;;;;;;;;4951085;28;19967;-72
2023/08/29 05:52:26;;;;;;;;;;;;;;;;;;4967568;28;20585;-72
2023/08/29 05:54:51;;;;;;;;;;;;;;;;;;4981068;28;19989;-71
2023/08/29 05:57:20;;;;;;;;;;;;;;;;;;4970105;28;19921;-70
2023/08/29 05:59:45;;;;;;;;;;;;;;;;;;4968840;28;19928;-69
2023/08/29 06:02:11;;;;;;;;;;;;;;;;;;4984169;28;20094;-69
2023/08/29 06:04:37;;;;;;;;;;;;;;;;;;4966871;28;20459;-70
2023/08/29 06:07:03;;;;;;;;;;;;;;;;;;4967012;28;19953;-69
2023/08/29 06:09:32;;;;;;;;;;;;;;;;;;4965417;28;19921;-69
2023/08/29 06:12:01;;;;;;;;;;;;;;;;;;4986154;28;19944;-68
2023/08/29 06:14:26;;;;;;;;;;;;;;;;;;4952066;28;20621;-68
2023/08/29 06:16:52;;;;;;;;;;;;;;;;;;4969333;28;19995;-69
2023/08/29 06:19:20;;;;;;;;;;;;;;;;;;4965929;28;19917;-69
2023/08/29 06:21:45;;;;;;;;;;;;;;;;;;4950893;28;19929;-69
2023/08/29 06:24:14;;;;;;;;;;;;;;;;;;4952619;28;19928;-69
2023/08/29 06:26:39;;;;;;;;;;;;;;;;;;4967861;28;20020;-69
2023/08/29 06:29:07;;;;;;;;;;;;;;;;;;4987998;28;20369;-69
2023/08/29 06:31:33;;;;;;;;;;;;;;;;;;4985555;28;19932;-67
2023/08/29 06:33:59;;;;;;;;;;;;;;;;;;4966910;28;19956;-68
2023/08/29 06:36:25;;;;;;;;;;;;;;;;;;4984358;28;20560;-68
2023/08/29 06:38:53;;;;;;;;;;;;;;;;;;4970837;28;19927;-69
2023/08/29 06:41:21;;;;;;;;;;;;;;;;;;4984141;28;19921;-68
2023/08/29 06:43:46;;;;;;;;;;;;;;;;;;4971547;28;19925;-68
2023/08/29 06:46:12;;;;;;;;;;;;;;;;;;4988884;28;19918;-68
2023/08/29 06:48:40;;;;;;;;;;;;;;;;;;4970101;28;20000;-68
2023/08/29 06:51:06;;;;;;;;;;;;;;;;;;4989246;28;19944;-70
2023/08/29 06:53:31;;;;;;;;;;;;;;;;;;4969312;28;19921;-69
2023/08/29 06:55:57;;;;;;;;;;;;;;;;;;4954393;28;20013;-69
2023/08/29 06:58:25;;;;;;;;;;;;;;;;;;4971611;28;19924;-68
2023/08/29 07:00:53;;;;;;;;;;;;;;;;;;4971892;28;21540;-68
2023/08/29 07:03:21;;;;;;;;;;;;;;;;;;4972856;28;19928;-68
2023/08/29 07:05:46;;;;;;;;;;;;;;;;;;4953218;28;19928;-68
2023/08/29 07:08:14;;;;;;;;;;;;;;;;;;4970701;28;20427;-68
2023/08/29 07:10:39;;;;;;;;;;;;;;;;;;4956260;28;19921;-68
2023/08/29 07:13:05;;;;;;;;;;;;;;;;;;4954809;28;19928;-67
2023/08/29 07:15:35;;;;;;;;;;;;;;;;;;4971335;28;19925;-67
2023/08/29 07:18:05;;;;;;;;;;;;;;;;;;4969031;28;19925;-67
2023/08/29 07:20:30;;;;;;;;;;;;;;;;;;4956885;28;20488;-67
2023/08/29 07:22:55;;;;;;;;;;;;;;;;;;4968438;28;19914;-66
2023/08/29 07:25:21;;;;;;;;;;;;;;;;;;4971850;28;20440;-68
2023/08/29 07:27:49;;;;;;;;;;;;;;;;;;4950381;28;19924;-68
2023/08/29 07:30:15;;;;;;;;;;;;;;;;;;4954974;28;19921;-66
2023/08/29 07:32:40;;;;;;;;;;;;;;;;;;4969841;28;19987;-68
2023/08/29 07:35:11;;;;;;;;;;;;;;;;;;4987528;28;20789;-68
2023/08/29 07:37:39;;;;;;;;;;;;;;;;;;4955322;28;19932;-68
2023/08/29 07:40:05;;;;;;;;;;;;;;;;;;4969299;28;20016;-68
2023/08/29 07:42:30;;;;;;;;;;;;;;;;;;4971029;28;19929;-68
2023/08/29 07:44:58;;;;;;;;;;;;;;;;;;4967394;28;20300;-69
2023/08/29 07:47:25;;;;;;;;;;;;;;;;;;4988627;28;19925;-68
2023/08/29 07:49:50;;;;;;;;;;;;;;;;;;4967958;28;19968;-68
2023/08/29 07:52:18;;;;;;;;;;;;;;;;;;4968479;28;21523;-68
2023/08/29 07:54:44;;;;;;;;;;;;;;;;;;4968836;28;20933;-69
2023/08/29 07:57:10;;;;;;;;;;;;;;;;;;4986621;28;19922;-69
2023/08/29 07:59:36;;;;;;;;;;;;;;;;;;4970195;28;19941;-68
2023/08/29 08:02:07;;;;;;;;;;;;;;;;;;4954575;28;19921;-68
2023/08/29 08:04:36;;;;;;;;;;;;;;;;;;4968034;28;19969;-67
2023/08/29 08:07:05;;;;;;;;;;;;;;;;;;4986506;28;19929;-68
2023/08/29 08:09:31;;;;;;;;;;;;;;;;;;4952856;28;19964;-67
2023/08/29 08:12:00;;;;;;;;;;;;;;;;;;4986011;28;20055;-67
2023/08/29 08:14:29;;;;;;;;;;;;;;;;;;4970746;28;20328;-68
2023/08/29 08:16:54;;;;;;;;;;;;;;;;;;4981874;28;19922;-68
2023/08/29 08:19:19;;;;;;;;;;;;;;;;;;4980657;28;20645;-68
2023/08/29 08:21:45;;;;;;;;;;;;;;;;;;4965834;28;19917;-67
2023/08/29 08:24:10;;;;;;;;;;;;;;;;;;4963053;28;20955;-66
2023/08/29 08:26:38;;;;;;;;;;;;;;;;;;4966234;28;19921;-66
2023/08/29 08:29:04;;;;;;;;;;;;;;;;;;4969332;28;19918;-66
2023/08/29 08:31:29;;;;;;;;;;;;;;;;;;4967359;28;19922;-67
2023/08/29 08:33:56;;;;;;;;;;;;;;;;;;4949732;28;19929;-67
2023/08/29 08:36:23;;;;;;;;;;;;;;;;;;4965092;28;19926;-66
2023/08/29 08:38:49;;;;;;;;;;;;;;;;;;4966520;28;19989;-67
2023/08/29 08:41:16;;;;;;;;;;;;;;;;;;4964379;28;19929;-65
2023/08/29 08:43:42;;;;;;;;;;;;;;;;;;4965313;28;19922;-66
2023/08/29 08:46:07;;;;;;;;;;;;;;;;;;4946307;28;19948;-65
2023/08/29 08:48:35;;;;;;;;;;;;;;;;;;4962362;28;20427;-67
2023/08/29 08:51:00;;;;;;;;;;;;;;;;;;4950296;28;20072;-66
2023/08/29 08:53:26;;;;;;;;;;;;;;;;;;4964700;28;19924;-66
2023/08/29 08:55:56;;;;;;;;;;;;;;;;;;4967207;28;20016;-69
2023/08/29 08:58:24;;;;;;;;;;;;;;;;;;4948404;28;21937;-67
2023/08/29 09:00:50;;;;;;;;;;;;;;;;;;4965426;28;19932;-67
2023/08/29 09:03:15;;;;;;;;;;;;;;;;;;4946429;28;20841;-68
2023/08/29 09:05:40;;;;;;;;;;;;;;;;;;4965734;28;20379;-69
2023/08/29 09:08:08;;;;;;;;;;;;;;;;;;4946584;28;19924;-68
2023/08/29 09:10:36;;;;;;;;;;;;;;;;;;4965003;28;20761;-68
2023/08/29 09:13:04;;;;;;;;;;;;;;;;;;4948633;28;19918;-68
2023/08/29 09:15:29;;;;;;;;;;;;;;;;;;4968029;28;20590;-68
2023/08/29 09:17:54;;;;;;;;;;;;;;;;;;4966210;28;19926;-68
2023/08/29 09:20:20;;;;;;;;;;;;;;;;;;4948016;28;19922;-67
2023/08/29 09:22:45;;;;;;;;;;;;;;;;;;4979579;28;19917;-68
2023/08/29 09:25:11;;;;;;;;;;;;;;;;;;4965205;28;19922;-68
2023/08/29 09:27:36;;;;;;;;;;;;;;;;;;4947342;28;19982;-67
2023/08/29 09:30:01;;;;;;;;;;;;;;;;;;4966394;28;19926;-67
2023/08/29 09:32:29;;;;;;;;;;;;;;;;;;4963812;28;19921;-69
2023/08/29 09:34:54;;;;;;;;;;;;;;;;;;4964012;28;19925;-70
2023/08/29 09:37:20;;;;;;;;;;;;;;;;;;4965938;28;19929;-69
2023/08/29 09:39:45;;;;;;;;;;;;;;;;;;4962801;28;20634;-69
2023/08/29 09:42:13;;;;;;;;;;;;;;;;;;4964886;28;19921;-69
2023/08/29 09:44:39;;;;;;;;;;;;;;;;;;4965326;28;20781;-69
2023/08/29 09:47:07;;;;;;;;;;;;;;;;;;4966264;28;19922;-69
2023/08/29 09:49:35;;;;;;;;;;;;;;;;;;4965419;28;20004;-70
2023/08/29 09:52:03;;;;;;;;;;;;;;;;;;4965111;28;20309;-69
2023/08/29 09:54:29;;;;;;;;;;;;;;;;;;4947233;28;19929;-69
2023/08/29 09:56:57;;;;;;;;;;;;;;;;;;4963757;28;20410;-69
2023/08/29 09:59:22;;;;;;;;;;;;;;;;;;4948222;28;20110;-69
2023/08/29 10:01:48;;;;;;;;;;;;;;;;;;4948607;28;19922;-69
2023/08/29 10:04:14;;;;;;;;;;;;;;;;;;4963780;28;19933;-69
2023/08/29 10:06:39;;;;;;;;;;;;;;;;;;4947985;28;20625;-69
2023/08/29 10:09:07;;;;;;;;;;;;;;;;;;4950283;28;20429;-69
2023/08/29 10:11:35;;;;;;;;;;;;;;;;;;4964749;28;20003;-68
2023/08/29 10:14:00;;;;;;;;;;;;;;;;;;4952731;28;20500;-70
2023/08/29 10:16:26;;;;;;;;;;;;;;;;;;4965071;28;20428;-70
2023/08/29 10:18:51;;;;;;;;;;;;;;;;;;4970160;28;19929;-68
2023/08/29 10:21:21;;;;;;;;;;;;;;;;;;4964643;28;19925;-68
2023/08/29 10:23:46;;;;;;;;;;;;;;;;;;4969741;28;19921;-68
2023/08/29 10:26:12;;;;;;;;;;;;;;;;;;4967892;28;19965;-70
2023/08/29 10:28:38;;;;;;;;;;;;;;;;;;4969745;28;19957;-68
2023/08/29 10:31:03;;;;;;;;;;;;;;;;;;4952594;28;20050;-69
2023/08/29 10:33:28;;;;;;;;;;;;;;;;;;4968642;28;19922;-69
2023/08/29 10:35:53;;;;;;;;;;;;;;;;;;4970934;28;19933;-68
2023/08/29 10:38:19;;;;;;;;;;;;;;;;;;4950334;28;20001;-67
2023/08/29 10:40:44;;;;;;;;;;;;;;;;;;4970465;28;19918;-69
2023/08/29 10:43:12;;;;;;;;;;;;;;;;;;4970432;28;19922;-68
2023/08/29 10:45:40;;;;;;;;;;;;;;;;;;4952695;28;19988;-69
2023/08/29 10:48:08;;;;;;;;;;;;;;;;;;4970374;28;19932;-68
2023/08/29 10:50:33;;;;;;;;;;;;;;;;;;4965859;28;19922;-70
2023/08/29 10:53:01;;;;;;;;;;;;;;;;;;4953956;28;20457;-69
2023/08/29 10:55:27;;;;;;;;;;;;;;;;;;4967552;28;19921;-68
2023/08/29 10:57:53;;;;;;;;;;;;;;;;;;4965018;28;19964;-68
2023/08/29 11:00:19;;;;;;;;;;;;;;;;;;4949673;28;20012;-68
2023/08/29 11:02:47;;;;;;;;;;;;;;;;;;4949986;28;21222;-68
2023/08/29 11:05:15;;;;;;;;;;;;;;;;;;4969270;28;20008;-68
2023/08/29 11:07:41;;;;;;;;;;;;;;;;;;4967970;28;20432;-67
2023/08/29 11:10:06;;;;;;;;;;;;;;;;;;4967992;28;19917;-69
2023/08/29 11:12:32;;;;;;;;;;;;;;;;;;4967302;28;19936;-68
2023/08/29 11:14:57;;;;;;;;;;;;;;;;;;4966790;28;19955;-70
2023/08/29 11:17:25;;;;;;;;;;;;;;;;;;4967875;28;19922;-69
2023/08/29 11:19:51;;;;;;;;;;;;;;;;;;4970913;28;20414;-68
2023/08/29 11:22:16;;;;;;;;;;;;;;;;;;4966894;28;19921;-69
2023/08/29 11:24:44;;;;;;;;;;;;;;;;;;4965248;28;19957;-68
2023/08/29 11:27:09;;;;;;;;;;;;;;;;;;4969697;28;19922;-68
2023/08/29 11:29:37;;;;;;;;;;;;;;;;;;4967012;28;19929;-68
2023/08/29 11:32:03;;;;;;;;;;;;;;;;;;4983614;28;20177;-69
2023/08/29 11:34:28;;;;;;;;;;;;;;;;;;4966341;28;21059;-69
2023/08/29 11:36:54;;;;;;;;;;;;;;;;;;4971018;28;19933;-69
2023/08/29 11:39:22;;;;;;;;;;;;;;;;;;4983954;28;20048;-69
2023/08/29 11:41:47;;;;;;;;;;;;;;;;;;4968089;28;21676;-70
2023/08/29 11:44:12;;;;;;;;;;;;;;;;;;4967961;28;20041;-69
2023/08/29 11:46:40;;;;;;;;;;;;;;;;;;4983372;28;20420;-68
2023/08/29 11:49:06;;;;;;;;;;;;;;;;;;4964983;28;19925;-69
2023/08/29 11:51:34;;;;;;;;;;;;;;;;;;4967466;28;22001;-69
2023/08/29 11:53:59;;;;;;;;;;;;;;;;;;4964286;28;19918;-69
2023/08/29 11:56:24;;;;;;;;;;;;;;;;;;4968497;28;19957;-69
2023/08/29 11:58:50;;;;;;;;;;;;;;;;;;4966221;28;20040;-68
2023/08/29 12:01:15;;;;;;;;;;;;;;;;;;4965550;28;19922;-69
2023/08/29 12:03:40;;;;;;;;;;;;;;;;;;4966771;28;20266;-70
2023/08/29 12:06:06;;;;;;;;;;;;;;;;;;4964914;28;19918;-70
2023/08/29 12:08:31;;;;;;;;;;;;;;;;;;4965371;28;19929;-71
2023/08/29 12:10:56;;;;;;;;;;;;;;;;;;4965554;28;19960;-69
2023/08/29 12:13:24;;;;;;;;;;;;;;;;;;4966274;28;19928;-71
2023/08/29 12:15:51;;;;;;;;;;;;;;;;;;4969127;28;19941;-70
2023/08/29 12:18:17;;;;;;;;;;;;;;;;;;4953470;28;19933;-71
2023/08/29 12:20:44;;;;;;;;;;;;;;;;;;4954387;28;19921;-70
2023/08/29 12:23:10;;;;;;;;;;;;;;;;;;4985135;28;19929;-70
2023/08/29 12:25:35;;;;;;;;;;;;;;;;;;4970826;28;19929;-70
2023/08/29 12:28:00;;;;;;;;;;;;;;;;;;4986877;28;19917;-70
2023/08/29 12:30:26;;;;;;;;;;;;;;;;;;4986902;28;20901;-70
2023/08/29 12:32:51;;;;;;;;;;;;;;;;;;4987716;28;20052;-70
2023/08/29 12:35:19;;;;;;;;;;;;;;;;;;4986474;28;19933;-70
2023/08/29 12:37:47;;;;;;;;;;;;;;;;;;4988127;28;19921;-70
2023/08/29 12:40:12;;;;;;;;;;;;;;;;;;4949965;28;19971;-70
2023/08/29 12:42:37;;;;;;;;;;;;;;;;;;4967549;28;20800;-70
2023/08/29 12:45:04;;;;;;;;;;;;;;;;;;4989015;28;19925;-71
2023/08/29 12:47:29;;;;;;;;;;;;;;;;;;4965865;28;19921;-72
2023/08/29 12:49:54;;;;;;;;;;;;;;;;;;4981264;28;19932;-71
2023/08/29 12:52:19;;;;;;;;;;;;;;;;;;4984546;28;20000;-73
2023/08/29 12:54:45;;;;;;;;;;;;;;;;;;4984980;28;19928;-73
2023/08/29 12:57:10;;;;;;;;;;;;;;;;;;4985971;28;19917;-71
2023/08/29 12:59:35;;;;;;;;;;;;;;;;;;4986939;28;19948;-70
2023/08/29 13:02:02;;;;;;;;;;;;;;;;;;4952223;28;19921;-71
2023/08/29 13:04:30;;;;;;;;;;;;;;;;;;4951571;28;19991;-71
2023/08/29 13:06:55;;;;;;;;;;;;;;;;;;4985353;28;20446;-72
2023/08/29 13:09:22;;;;;;;;;;;;;;;;;;4952642;28;21617;-72
2023/08/29 13:11:47;;;;;;;;;;;;;;;;;;4965435;28;19918;-72
2023/08/29 13:14:13;;;;;;;;;;;;;;;;;;4969578;28;19975;-72
2023/08/29 13:16:41;;;;;;;;;;;;;;;;;;4952374;28;19925;-72
2023/08/29 13:19:06;;;;;;;;;;;;;;;;;;4968543;28;19969;-71
2023/08/29 13:21:31;;;;;;;;;;;;;;;;;;4968712;28;20397;-71
2023/08/29 13:23:57;;;;;;;;;;;;;;;;;;4986130;28;19968;-73
2023/08/29 13:26:22;;;;;;;;;;;;;;;;;;4951950;28;19921;-74
2023/08/29 13:28:47;;;;;;;;;;;;;;;;;;4952326;28;19922;-72
2023/08/29 13:31:15;;;;;;;;;;;;;;;;;;4985269;28;19928;-73
2023/08/29 13:33:41;;;;;;;;;;;;;;;;;;4987163;28;19921;-72
2023/08/29 13:36:07;;;;;;;;;;;;;;;;;;4987200;28;19918;-72
2023/08/29 13:38:32;;;;;;;;;;;;;;;;;;4967020;28;20610;-72
2023/08/29 13:40:58;;;;;;;;;;;;;;;;;;4987515;28;19917;-72
2023/08/29 13:43:23;;;;;;;;;;;;;;;;;;4984714;28;19952;-72
2023/08/29 13:45:49;;;;;;;;;;;;;;;;;;4951716;28;19925;-73
2023/08/29 13:48:14;;;;;;;;;;;;;;;;;;4968740;28;20451;-72
2023/08/29 13:50:40;;;;;;;;;;;;;;;;;;4956302;28;19933;-72
2023/08/29 13:53:05;;;;;;;;;;;;;;;;;;4954171;28;19944;-72
2023/08/29 13:55:33;;;;;;;;;;;;;;;;;;4957224;28;19945;-72
2023/08/29 13:57:58;;;;;;;;;;;;;;;;;;4989121;28;20629;-76
2023/08/29 14:00:24;;;;;;;;;;;;;;;;;;4973264;28;19922;-73
2023/08/29 14:02:50;;;;;;;;;;;;;;;;;;4971216;28;19926;-73
2023/08/29 14:05:15;;;;;;;;;;;;;;;;;;4971700;28;19926;-72
2023/08/29 14:07:44;;;;;;;;;;;;;;;;;;4989562;28;19968;-73
2023/08/29 14:10:09;;;;;;;;;;;;;;;;;;4973571;28;20671;-72
2023/08/29 14:12:37;;;;;;;;;;;;;;;;;;4989459;28;19925;-72
2023/08/29 14:15:02;;;;;;;;;;;;;;;;;;4991452;28;20021;-72
2023/08/29 14:17:28;;;;;;;;;;;;;;;;;;4971143;28;19922;-71
2023/08/29 14:19:56;;;;;;;;;;;;;;;;;;4986937;28;20048;-71
2023/08/29 14:22:22;;;;;;;;;;;;;;;;;;4988149;28;20016;-72
2023/08/29 14:24:47;;;;;;;;;;;;;;;;;;4963380;28;19929;-71
2023/08/29 14:27:13;;;;;;;;;;;;;;;;;;4969976;28;19921;-71
2023/08/29 14:29:38;;;;;;;;;;;;;;;;;;4954848;28;19932;-75
2023/08/29 14:32:03;;;;;;;;;;;;;;;;;;4969013;28;21068;-72
2023/08/29 14:34:31;;;;;;;;;;;;;;;;;;4953754;28;20396;-72
2023/08/29 14:36:56;;;;;;;;;;;;;;;;;;4980862;28;19917;-73
2023/08/29 14:39:26;;;;;;;;;;;;;;;;;;4966490;28;19979;-73
2023/08/29 14:41:54;;;;;;;;;;;;;;;;;;4967544;28;19925;-73
2023/08/29 14:44:43;;;;;;;;;;;;;;;;;;4966015;28;19925;-72
2023/08/29 14:47:08;;;;;;;;;;;;;;;;;;4989214;28;20322;-71
2023/08/29 14:49:51;;;;;;;;;;;;;;;;;;4970655;28;19925;-73
2023/08/29 14:52:17;;;;;;;;;;;;;;;;;;4953518;28;20301;-71
2023/08/29 14:54:48;;;;;;;;;;;;;;;;;;4959087;28;19964;-71
2023/08/29 14:57:20;;;;;;;;;;;;;;;;;;4953978;28;19922;-72
2023/08/29 14:59:51;;;;;;;;;;;;;;;;;;4975072;28;19918;-71
2023/08/29 15:02:16;;;;;;;;;;;;;;;;;;4952612;28;19922;-71
2023/08/29 15:04:42;;;;;;;;;;;;;;;;;;4973340;28;20598;-70
2023/08/29 15:07:13;;;;;;;;;;;;;;;;;;4939119;28;19926;-70
2023/08/29 15:09:43;;;;;;;;;;;;;;;;;;4977176;28;19914;-70
2023/08/29 15:12:08;;;;;;;;;;;;;;;;;;4953232;28;19929;-70
2023/08/29 15:14:45;;;;;;;;;;;;;;;;;;4959017;28;19914;-72
2023/08/29 15:17:36;;;;;;;;;;;;;;;;;;4971036;28;19932;-71
2023/08/29 15:20:11;;;;;;;;;;;;;;;;;;4945437;28;20020;-71
2023/08/29 15:22:39;;;;;;;;;;;;;;;;;;4968731;28;20012;-71
2023/08/29 15:25:04;;;;;;;;;;;;;;;;;;4943346;28;19972;-71
2023/08/29 15:27:30;;;;;;;;;;;;;;;;;;4949168;28;19933;-71
2023/08/29 15:29:55;;;;;;;;;;;;;;;;;;4960079;28;20020;-71
2023/08/29 15:32:20;;;;;;;;;;;;;;;;;;4962710;28;21326;-70
2023/08/29 15:41:32;;;;;;;;;;;;;;;;;;4965459;28;20048;-72
2023/08/29 15:44:01;;;;;;;;;;;;;;;;;;4973680;28;20328;-71
2023/08/29 15:46:29;;;;;;;;;;;;;;;;;;4974175;28;19969;-71
2023/08/29 15:48:55;;;;;;;;;;;;;;;;;;4972091;28;19926;-70
2023/08/29 15:51:20;;;;;;;;;;;;;;;;;;4946455;28;19940;-71
2023/08/29 15:54:20;;;;;;;;;;;;;;;;;;4969515;28;19981;-69
2023/08/29 15:56:51;;;;;;;;;;;;;;;;;;4960622;28;19917;-72
2023/08/29 15:59:25;;;;;;;;;;;;;;;;;;4968664;28;19921;-70
2023/08/29 16:05:09;;;;;;;;;;;;;;;;;;4953101;28;20305;-69
2023/08/29 16:07:34;;;;;;;;;;;;;;;;;;4972331;28;19922;-69
2023/08/29 16:10:03;;;;;;;;;;;;;;;;;;4989588;28;19972;-69
2023/08/29 16:13:01;;;;;;;;;;;;;;;;;;4987947;28;19922;-69
2023/08/29 16:15:26;;;;;;;;;;;;;;;;;;4978674;28;19922;-69
2023/08/29 16:17:56;;;;;;;;;;;;;;;;;;4981690;28;20340;-69
2023/08/29 16:20:22;;;;;;;;;;;;;;;;;;4949671;28;20019;-69
2023/08/29 16:22:47;;;;;;;;;;;;;;;;;;4973127;28;20024;-69
2023/08/29 16:25:14;;;;;;;;;;;;;;;;;;4983731;28;20024;-69
2023/08/29 16:27:39;;;;;;;;;;;;;;;;;;4984292;28;19991;-69
2023/08/29 16:30:07;;;;;;;;;;;;;;;;;;4972627;28;19925;-68
2023/08/29 16:32:32;;;;;;;;;;;;;;;;;;4967849;28;19921;-68
2023/08/29 16:34:57;;;;;;;;;;;;;;;;;;4974421;28;19917;-68
2023/08/29 16:37:23;;;;;;;;;;;;;;;;;;4973953;28;19964;-69
2023/08/29 16:39:51;;;;;;;;;;;;;;;;;;4969259;28;20968;-68
2023/08/29 16:42:16;;;;;;;;;;;;;;;;;;4989701;28;19929;-69
2023/08/29 16:44:41;;;;;;;;;;;;;;;;;;4961136;28;20905;-68
2023/08/29 16:47:07;;;;;;;;;;;;;;;;;;4969778;28;25803;-69
2023/08/29 16:49:32;;;;;;;;;;;;;;;;;;4976311;28;19933;-69
2023/08/29 16:51:58;;;;;;;;;;;;;;;;;;4963467;28;19921;-70
2023/08/29 16:54:23;;;;;;;;;;;;;;;;;;4984757;28;20524;-68
2023/08/29 16:56:53;;;;;;;;;;;;;;;;;;4983047;28;19922;-69